createdAt,value
2023-04-26T00:02:04.836Z,70.30
2023-04-26T00:04:32.236Z,71.92
2023-04-26T00:07:00.646Z,71.34
2023-04-26T00:09:27.518Z,72.17
2023-04-26T00:11:54.459Z,71.35
2023-04-26T00:14:21.767Z,72.21
2023-04-26T00:16:49.083Z,71.35
2023-04-26T00:19:17.785Z,71.15
2023-04-26T00:21:48.285Z,71.17
2023-04-26T00:24:15.101Z,71.71
2023-04-26T00:26:42.007Z,73.12
2023-04-26T00:29:09.854Z,73.38
2023-04-26T00:31:36.846Z,73.51
2023-04-26T00:34:04.820Z,73.36
2023-04-26T00:36:32.821Z,73.04
2023-04-26T00:38:59.565Z,72.71
2023-04-26T00:41:27.068Z,72.35
2023-04-26T00:43:54.698Z,72.49
2023-04-26T00:46:22.928Z,73.14
2023-04-26T00:48:51.439Z,73.45
2023-04-26T00:51:19.195Z,73.86
2023-04-26T00:53:46.728Z,72.50
2023-04-26T00:56:15.677Z,72.22
2023-04-26T00:58:42.617Z,71.91
2023-04-26T01:01:10.122Z,72.19
2023-04-26T01:03:37.340Z,73.71
2023-04-26T01:06:04.917Z,73.25
2023-04-26T01:08:31.794Z,74.35
2023-04-26T01:10:59.620Z,75.19
2023-04-26T01:13:28.093Z,74.35
2023-04-26T01:15:57.084Z,74.82
2023-04-26T01:18:24.111Z,76.09
2023-04-26T01:20:53.643Z,75.88
2023-04-26T01:23:20.552Z,75.42
2023-04-26T01:25:48.829Z,75.44
2023-04-26T01:28:16.767Z,75.90
2023-04-26T01:30:44.723Z,75.88
2023-04-26T01:33:11.676Z,76.11
2023-04-26T01:35:38.614Z,76.51
2023-04-26T01:38:05.486Z,75.87
2023-04-26T01:40:32.675Z,75.82
2023-04-26T01:43:01.276Z,76.34
2023-04-26T01:45:30.926Z,76.89
2023-04-26T01:47:58.456Z,77.19
2023-04-26T01:50:26.382Z,77.91
2023-04-26T01:52:53.731Z,77.91
2023-04-26T01:55:20.809Z,77.68
2023-04-26T01:57:47.545Z,77.54
2023-04-26T02:00:14.683Z,77.32
2023-04-26T02:02:42.534Z,77.72
2023-04-26T02:05:12.047Z,77.30
2023-04-26T02:07:39.107Z,77.59
2023-04-26T02:10:06.741Z,77.53
2023-04-26T02:12:33.678Z,78.09
2023-04-26T02:15:01.529Z,78.47
2023-04-26T02:17:29.417Z,78.54
2023-04-26T02:19:57.119Z,78.18
2023-04-26T02:22:42.602Z,77.32
2023-04-26T02:25:09.643Z,78.89
2023-04-26T02:27:36.748Z,78.22
2023-04-26T02:30:04.764Z,78.49
2023-04-26T02:32:31.770Z,78.68
2023-04-26T02:34:58.641Z,79.54
2023-04-26T02:37:25.516Z,78.96
2023-04-26T02:39:52.579Z,79.02
2023-04-26T02:42:19.724Z,78.78
2023-04-26T02:44:47.546Z,78.91
2023-04-26T02:47:14.562Z,78.59
2023-04-26T02:49:43.272Z,78.53
2023-04-26T02:52:10.122Z,79.59
2023-04-26T02:54:37.030Z,79.58
2023-04-26T02:57:04.374Z,79.16
2023-04-26T02:59:31.674Z,78.75
2023-04-26T03:01:59.465Z,79.42
2023-04-26T03:04:27.826Z,79.57
2023-04-26T03:06:55.664Z,79.86
2023-04-26T03:09:24.416Z,79.51
2023-04-26T03:11:52.689Z,79.04
2023-04-26T03:14:19.587Z,79.00
2023-04-26T03:16:48.612Z,78.21
2023-04-26T03:19:18.260Z,78.13
2023-04-26T03:21:45.248Z,78.05
2023-04-26T03:24:12.953Z,77.54
2023-04-26T03:26:42.746Z,77.83
2023-04-26T03:29:11.207Z,78.94
2023-04-26T03:31:40.787Z,78.48
2023-04-26T03:34:10.697Z,78.33
2023-04-26T03:36:40.092Z,78.18
2023-04-26T03:39:07.916Z,78.77
2023-04-26T03:41:39.657Z,78.61
2023-04-26T03:44:08.722Z,78.94
2023-04-26T03:46:36.705Z,78.45
2023-04-26T03:49:03.837Z,77.95
2023-04-26T03:51:31.535Z,79.46
2023-04-26T03:53:59.664Z,78.81
2023-04-26T03:56:28.660Z,78.05
2023-04-26T03:58:57.142Z,78.33
2023-04-26T04:01:26.661Z,78.29
2023-04-26T04:03:55.858Z,78.43
2023-04-26T04:06:25.685Z,78.50
2023-04-26T04:08:53.815Z,78.54
2023-04-26T04:11:22.189Z,77.65
2023-04-26T04:13:49.275Z,77.27
2023-04-26T04:16:17.531Z,76.71
2023-04-26T04:18:45.533Z,77.52
2023-04-26T04:21:12.464Z,77.67
2023-04-26T04:23:41.031Z,77.27
2023-04-26T04:26:09.130Z,77.00
2023-04-26T04:28:36.940Z,77.31
2023-04-26T04:31:04.709Z,76.51
2023-04-26T04:33:33.267Z,76.52
2023-04-26T04:36:01.272Z,76.25
2023-04-26T04:38:31.140Z,75.37
2023-04-26T04:41:00.936Z,75.22
2023-04-26T04:43:28.859Z,74.92
2023-04-26T04:45:56.704Z,75.84
2023-04-26T04:48:23.785Z,75.32
2023-04-26T04:50:51.991Z,75.52
2023-04-26T04:53:21.538Z,74.85
2023-04-26T04:55:50.236Z,74.28
2023-04-26T04:58:18.098Z,73.98
2023-04-26T05:00:47.098Z,74.36
2023-04-26T05:03:15.245Z,74.24
2023-04-26T05:05:43.502Z,74.97
2023-04-26T05:08:12.570Z,74.58
2023-04-26T05:10:40.471Z,74.96
2023-04-26T05:13:09.346Z,73.59
2023-04-26T05:15:37.273Z,72.88
2023-04-26T05:18:05.160Z,72.66
2023-04-26T05:20:33.093Z,71.96
2023-04-26T05:23:02.607Z,72.66
2023-04-26T05:25:30.393Z,72.31
2023-04-26T05:28:00.137Z,71.76
2023-04-26T05:30:27.780Z,72.62
2023-04-26T05:32:56.992Z,72.85
2023-04-26T05:35:25.026Z,72.78
2023-04-26T05:37:51.917Z,72.80
2023-04-26T05:40:19.597Z,72.56
2023-04-26T05:42:47.409Z,72.69
2023-04-26T05:45:17.174Z,72.38
2023-04-26T05:47:44.976Z,71.42
2023-04-26T05:50:12.733Z,71.41
2023-04-26T05:52:42.215Z,70.80
2023-04-26T05:55:10.363Z,70.55
2023-04-26T05:57:38.142Z,70.48
2023-04-26T06:00:06.213Z,70.03
2023-04-26T06:02:34.221Z,71.08
2023-04-26T06:05:05.388Z,69.69
2023-04-26T06:07:32.997Z,69.04
2023-04-26T06:10:02.911Z,69.03
2023-04-26T06:12:30.591Z,69.25
2023-04-26T06:14:58.495Z,68.43
2023-04-26T06:17:26.754Z,68.44
2023-04-26T06:19:53.903Z,68.30
2023-04-26T06:22:22.820Z,69.24
2023-04-26T06:24:49.879Z,68.81
2023-04-26T06:27:17.841Z,68.57
2023-04-26T06:29:46.700Z,68.75
2023-04-26T06:32:13.542Z,67.46
2023-04-26T06:34:41.143Z,67.08
2023-04-26T06:37:08.921Z,66.86
2023-04-26T06:39:38.581Z,66.59
2023-04-26T06:42:05.769Z,66.44
2023-04-26T06:44:33.712Z,66.15
2023-04-26T06:47:01.387Z,66.36
2023-04-26T06:49:30.917Z,65.03
2023-04-26T06:51:58.551Z,64.71
2023-04-26T06:54:30.708Z,64.25
2023-04-26T06:57:00.083Z,63.52
2023-04-26T06:59:36.046Z,61.92
2023-04-26T07:02:03.965Z,62.11
2023-04-26T07:04:31.728Z,60.05
2023-04-26T07:06:59.745Z,60.96
2023-04-26T07:09:26.567Z,59.69
2023-04-26T07:11:53.633Z,59.99
2023-04-26T07:14:20.900Z,59.15
2023-04-26T07:16:48.556Z,57.73
2023-04-26T07:19:19.373Z,57.85
2023-04-26T07:21:53.044Z,57.29
2023-04-26T07:24:20.229Z,57.43
2023-04-26T07:26:47.961Z,56.54
2023-04-26T07:29:15.108Z,56.17
2023-04-26T07:31:43.278Z,55.87
2023-04-26T07:34:11.910Z,55.33
2023-04-26T07:36:38.846Z,53.70
2023-04-26T07:39:06.620Z,53.37
2023-04-26T07:41:35.706Z,52.94
2023-04-26T07:44:03.124Z,51.57
2023-04-26T07:46:29.962Z,50.66
2023-04-26T07:48:57.722Z,50.65
2023-04-26T07:51:24.819Z,50.36
2023-04-26T07:53:52.230Z,48.81
2023-04-26T07:56:20.262Z,47.91
2023-04-26T07:58:47.260Z,48.57
2023-04-26T08:01:15.764Z,48.63
2023-04-26T08:03:44.001Z,48.48
2023-04-26T08:06:12.121Z,46.80
2023-04-26T08:08:44.793Z,47.01
2023-04-26T08:11:12.650Z,46.42
2023-04-26T08:13:40.392Z,45.64
2023-04-26T08:16:07.335Z,46.18
2023-04-26T08:18:35.150Z,45.09
2023-04-26T08:21:04.309Z,44.62
2023-04-26T08:23:36.638Z,42.47
2023-04-26T08:26:04.476Z,42.28
2023-04-26T08:28:32.938Z,40.96
2023-04-26T08:30:59.811Z,42.00
2023-04-26T08:33:27.493Z,40.98
2023-04-26T08:35:55.095Z,40.40
2023-04-26T08:38:23.006Z,39.06
2023-04-26T08:40:51.846Z,39.63
2023-04-26T08:43:18.650Z,38.84
2023-04-26T08:45:48.559Z,39.08
2023-04-26T08:48:18.446Z,39.62
2023-04-26T08:50:48.887Z,38.10
2023-04-26T08:53:21.876Z,39.05
2023-04-26T08:55:50.405Z,37.54
2023-04-26T08:58:18.944Z,37.95
2023-04-26T09:00:47.072Z,38.01
2023-04-26T09:03:15.222Z,37.60
2023-04-26T09:05:46.052Z,36.68
2023-04-26T09:08:17.717Z,36.30
2023-04-26T09:10:44.788Z,37.40
2023-04-26T09:13:13.217Z,35.99
2023-04-26T09:15:41.469Z,35.59
2023-04-26T09:18:22.058Z,34.85
2023-04-26T09:21:03.994Z,35.93
2023-04-26T09:23:31.863Z,36.45
2023-04-26T09:26:19.308Z,37.89
2023-04-26T09:28:46.611Z,39.20
2023-04-26T09:31:37.612Z,39.03
2023-04-26T09:34:05.499Z,39.67
2023-04-26T09:36:32.503Z,40.72
2023-04-26T09:39:00.681Z,40.29
2023-04-26T09:41:45.568Z,40.83
2023-04-26T09:44:25.815Z,40.06
2023-04-26T09:47:06.193Z,40.17
2023-04-26T09:49:48.603Z,40.88
2023-04-26T09:52:16.481Z,41.52
2023-04-26T09:54:51.884Z,39.78
2023-04-26T09:57:22.522Z,40.36
2023-04-26T09:59:55.649Z,39.31
2023-04-26T10:02:27.441Z,40.25
2023-04-26T10:04:57.064Z,39.66
2023-04-26T10:07:25.671Z,40.48
2023-04-26T10:09:53.710Z,39.67
2023-04-26T10:12:21.650Z,39.59
2023-04-26T10:14:49.230Z,39.79
2023-04-26T10:17:19.610Z,40.97
2023-04-26T10:19:53.390Z,40.52
2023-04-26T10:22:29.138Z,41.12
2023-04-26T10:24:56.344Z,40.59
2023-04-26T10:27:43.451Z,39.66
2023-04-26T10:30:12.485Z,39.50
2023-04-26T10:32:57.458Z,40.50
2023-04-26T10:35:26.362Z,39.83
2023-04-26T10:38:01.300Z,40.23
2023-04-26T10:40:32.659Z,39.39
2023-04-26T10:43:11.982Z,40.02
2023-04-26T10:45:40.624Z,40.66
2023-04-26T10:48:33.292Z,40.01
2023-04-26T10:51:05.596Z,39.68
2023-04-26T10:53:54.188Z,38.73
2023-04-26T10:56:26.019Z,38.00
2023-04-26T10:59:33.467Z,37.53
2023-04-26T11:02:01.367Z,38.14
2023-04-26T11:04:51.607Z,38.75
2023-04-26T11:07:39.556Z,38.57
2023-04-26T11:10:12.649Z,38.24
2023-04-26T11:12:42.316Z,37.91
2023-04-26T11:15:09.478Z,37.15
2023-04-26T11:17:38.379Z,36.06
2023-04-26T11:20:10.073Z,36.56
2023-04-26T11:22:42.019Z,36.04
2023-04-26T11:25:09.618Z,35.84
2023-04-26T11:27:38.475Z,36.07
2023-04-26T11:30:08.333Z,36.26
2023-04-26T11:32:35.126Z,35.62
2023-04-26T11:35:02.070Z,36.03
2023-04-26T11:37:29.270Z,36.13
2023-04-26T11:39:57.993Z,35.38
2023-04-26T11:42:26.491Z,34.85
2023-04-26T11:44:56.302Z,34.83
2023-04-26T11:47:23.862Z,35.17
2023-04-26T11:49:51.018Z,35.88
2023-04-26T11:52:19.061Z,34.64
2023-04-26T11:54:45.950Z,33.96
2023-04-26T11:57:19.628Z,34.43
2023-04-26T11:59:47.415Z,34.14
2023-04-26T12:02:14.426Z,32.91
2023-04-26T12:04:41.889Z,33.34
2023-04-26T12:07:09.681Z,34.29
2023-04-26T12:09:42.665Z,33.21
2023-04-26T12:12:09.842Z,33.13
2023-04-26T12:14:41.061Z,33.05
2023-04-26T12:17:08.500Z,33.19
2023-04-26T12:19:36.909Z,33.17
2023-04-26T12:22:04.659Z,33.62
2023-04-26T12:24:38.974Z,33.40
2023-04-26T12:27:08.225Z,33.80
2023-04-26T12:29:35.907Z,33.32
2023-04-26T12:32:04.388Z,32.95
2023-04-26T12:34:32.398Z,32.11
2023-04-26T12:36:59.256Z,31.79
2023-04-26T12:39:26.064Z,33.21
2023-04-26T12:41:55.299Z,33.04
2023-04-26T12:44:23.016Z,32.30
2023-04-26T12:46:51.437Z,32.02
2023-04-26T12:49:18.308Z,33.19
2023-04-26T12:51:46.454Z,33.46
2023-04-26T12:54:14.253Z,32.39
2023-04-26T12:56:44.481Z,33.12
2023-04-26T12:59:13.466Z,33.43
2023-04-26T13:01:40.781Z,32.69
2023-04-26T13:04:07.835Z,31.32
2023-04-26T13:06:36.037Z,30.92
2023-04-26T13:09:03.982Z,30.78
2023-04-26T13:11:30.976Z,31.80
2023-04-26T13:14:02.216Z,33.09
2023-04-26T13:16:29.055Z,33.32
2023-04-26T13:18:56.362Z,31.94
2023-04-26T13:21:23.194Z,31.10
2023-04-26T13:23:51.938Z,31.48
2023-04-26T13:26:19.587Z,31.08
2023-04-26T13:28:48.582Z,30.61
2023-04-26T13:31:17.585Z,31.31
2023-04-26T13:33:47.622Z,32.01
2023-04-26T13:36:17.379Z,32.01
2023-04-26T13:38:45.278Z,32.00
2023-04-26T13:41:12.171Z,31.53
2023-04-26T13:43:39.131Z,32.06
2023-04-26T13:46:06.922Z,31.63
2023-04-26T13:48:34.512Z,30.64
2023-04-26T13:51:04.024Z,30.72
2023-04-26T13:53:32.701Z,30.98
2023-04-26T13:55:59.615Z,31.91
2023-04-26T13:58:26.650Z,32.84
2023-04-26T14:00:54.337Z,31.56
2023-04-26T14:03:22.506Z,32.03
2023-04-26T14:05:49.957Z,31.90
2023-04-26T14:08:17.019Z,31.06
2023-04-26T14:10:44.845Z,31.00
2023-04-26T14:13:12.064Z,29.66
2023-04-26T14:15:39.052Z,29.55
2023-04-26T14:18:06.232Z,29.49
2023-04-26T14:20:33.994Z,31.06
2023-04-26T14:23:00.830Z,30.54
2023-04-26T14:25:27.720Z,30.21
2023-04-26T14:27:55.290Z,30.35
2023-04-26T14:30:24.565Z,31.17
2023-04-26T14:32:52.223Z,31.12
2023-04-26T14:35:19.868Z,30.66
2023-04-26T14:37:47.919Z,30.78
2023-04-26T14:40:15.632Z,30.65
2023-04-26T14:42:46.208Z,30.17
2023-04-26T14:45:14.461Z,30.23
2023-04-26T14:47:42.210Z,29.78
2023-04-26T14:50:11.267Z,30.63
2023-04-26T14:52:39.125Z,30.58
2023-04-26T14:55:06.670Z,30.31
2023-04-26T14:57:34.858Z,30.88
2023-04-26T15:00:09.298Z,31.21
2023-04-26T15:02:36.339Z,31.88
2023-04-26T15:05:04.269Z,32.23
2023-04-26T15:07:33.024Z,32.31
2023-04-26T15:10:01.772Z,32.47
2023-04-26T15:12:28.794Z,32.36
2023-04-26T15:14:56.606Z,32.26
2023-04-26T15:17:24.537Z,31.77
2023-04-26T15:19:52.286Z,31.06
2023-04-26T15:22:20.947Z,31.46
2023-04-26T15:24:50.003Z,30.78
2023-04-26T15:27:18.479Z,30.93
2023-04-26T15:29:46.397Z,30.77
2023-04-26T15:32:13.953Z,31.13
2023-04-26T15:34:43.564Z,31.30
2023-04-26T15:37:11.817Z,30.76
2023-04-26T15:39:39.473Z,29.48
2023-04-26T15:42:06.646Z,28.87
2023-04-26T15:44:33.497Z,28.59
2023-04-26T15:47:04.316Z,28.89
2023-04-26T15:49:32.160Z,29.04
2023-04-26T15:52:00.030Z,30.33
2023-04-26T15:54:27.933Z,30.89
2023-04-26T15:56:55.360Z,29.93
2023-04-26T15:59:23.096Z,31.30
2023-04-26T16:01:51.010Z,32.07
2023-04-26T16:04:18.829Z,32.34
2023-04-26T16:06:46.737Z,32.97
2023-04-26T16:09:25.384Z,31.46
2023-04-26T16:11:53.959Z,31.46
2023-04-26T16:14:21.620Z,32.45
2023-04-26T16:16:49.257Z,32.66
2023-04-26T16:19:17.557Z,32.53
2023-04-26T16:21:45.820Z,33.18
2023-04-26T16:24:13.541Z,32.84
2023-04-26T16:26:42.432Z,32.51
2023-04-26T16:29:09.196Z,32.73
2023-04-26T16:31:36.912Z,32.58
2023-04-26T16:34:04.809Z,32.84
2023-04-26T16:36:32.123Z,33.26
2023-04-26T16:38:59.815Z,33.71
2023-04-26T16:41:28.149Z,33.44
2023-04-26T16:43:56.055Z,33.51
2023-04-26T16:46:23.951Z,34.08
2023-04-26T16:48:51.107Z,34.31
2023-04-26T16:51:18.674Z,33.69
2023-04-26T16:53:46.511Z,33.92
2023-04-26T16:56:14.342Z,35.17
2023-04-26T16:58:42.385Z,35.47
2023-04-26T17:01:10.083Z,35.80
2023-04-26T17:03:37.971Z,36.42
2023-04-26T17:06:06.825Z,36.14
2023-04-26T17:08:34.488Z,35.95
2023-04-26T17:11:02.221Z,36.27
2023-04-26T17:13:32.741Z,36.30
2023-04-26T17:16:00.425Z,36.33
2023-04-26T17:18:27.272Z,36.14
2023-04-26T17:20:56.928Z,36.17
2023-04-26T17:23:24.801Z,36.32
2023-04-26T17:25:54.946Z,36.75
2023-04-26T17:28:24.237Z,36.19
2023-04-26T17:30:52.339Z,36.71
2023-04-26T17:33:19.592Z,36.68
2023-04-26T17:35:47.937Z,36.67
2023-04-26T17:38:14.973Z,36.24
2023-04-26T17:40:42.895Z,37.48
2023-04-26T17:43:12.554Z,37.44
2023-04-26T17:45:40.401Z,37.30
2023-04-26T17:48:13.444Z,37.52
2023-04-26T17:50:42.339Z,37.39
2023-04-26T17:53:09.182Z,38.35
2023-04-26T17:55:36.653Z,38.05
2023-04-26T17:58:04.466Z,38.08
2023-04-26T18:00:31.345Z,38.16
2023-04-26T18:02:59.083Z,38.00
2023-04-26T18:05:26.319Z,38.08
2023-04-26T18:07:54.227Z,38.01
2023-04-26T18:10:22.311Z,38.49
2023-04-26T18:12:50.079Z,38.91
2023-04-26T18:15:18.856Z,38.88
2023-04-26T18:17:46.916Z,39.54
2023-04-26T18:20:14.774Z,39.47
2023-04-26T18:22:43.262Z,39.25
2023-04-26T18:25:11.329Z,39.72
2023-04-26T18:27:39.128Z,39.72
2023-04-26T18:30:07.038Z,39.36
2023-04-26T18:32:34.902Z,39.13
2023-04-26T18:35:06.305Z,39.72
2023-04-26T18:37:34.058Z,40.28
2023-04-26T18:40:01.890Z,40.38
2023-04-26T18:42:29.652Z,40.76
2023-04-26T18:44:56.751Z,40.35
2023-04-26T18:47:23.882Z,39.94
2023-04-26T18:49:50.657Z,40.00
2023-04-26T18:52:19.047Z,40.58
2023-04-26T18:54:46.892Z,41.09
2023-04-26T18:57:15.758Z,41.27
2023-04-26T18:59:43.429Z,40.99
2023-04-26T19:02:11.765Z,41.06
2023-04-26T19:04:39.952Z,40.86
2023-04-26T19:07:09.933Z,40.47
2023-04-26T19:09:50.346Z,40.64
2023-04-26T19:12:21.337Z,41.22
2023-04-26T19:14:49.162Z,41.45
2023-04-26T19:17:16.081Z,42.17
2023-04-26T19:19:43.922Z,41.81
2023-04-26T19:22:10.729Z,41.84
2023-04-26T19:24:37.620Z,41.73
2023-04-26T19:27:05.293Z,42.22
2023-04-26T19:29:32.976Z,42.11
2023-04-26T19:32:00.833Z,42.13
2023-04-26T19:34:28.592Z,42.67
2023-04-26T19:36:56.496Z,42.44
2023-04-26T19:39:23.825Z,42.17
2023-04-26T19:41:51.503Z,42.59
2023-04-26T19:44:20.707Z,43.01
2023-04-26T19:46:48.758Z,43.09
2023-04-26T19:49:16.490Z,43.20
2023-04-26T19:51:43.181Z,43.45
2023-04-26T19:54:11.139Z,44.23
2023-04-26T19:56:37.874Z,44.64
2023-04-26T19:59:05.812Z,44.53
2023-04-26T20:01:33.245Z,44.24
2023-04-26T20:04:02.088Z,44.30
2023-04-26T20:06:30.365Z,44.51
2023-04-26T20:08:59.314Z,44.83
2023-04-26T20:11:28.445Z,44.73
2023-04-26T20:13:56.985Z,45.41
2023-04-26T20:16:25.301Z,45.53
2023-04-26T20:18:53.101Z,45.28
2023-04-26T20:21:19.880Z,45.26
2023-04-26T20:23:47.411Z,45.12
2023-04-26T20:26:16.306Z,45.31
2023-04-26T20:28:43.838Z,45.76
2023-04-26T20:31:11.156Z,45.87
2023-04-26T20:33:38.825Z,46.20
2023-04-26T20:36:06.633Z,45.64
2023-04-26T20:38:36.243Z,46.19
2023-04-26T20:41:04.606Z,46.22
2023-04-26T20:43:32.318Z,46.82
2023-04-26T20:46:00.251Z,46.97
2023-04-26T20:48:29.018Z,47.49
2023-04-26T20:50:57.183Z,48.71
2023-04-26T20:53:24.093Z,48.86
2023-04-26T20:55:53.775Z,48.67
2023-04-26T20:58:20.937Z,49.05
2023-04-26T21:00:52.450Z,48.27
2023-04-26T21:03:20.441Z,48.73
2023-04-26T21:05:47.740Z,49.74
2023-04-26T21:08:15.434Z,49.54
2023-04-26T21:10:42.617Z,49.43
2023-04-26T21:13:09.794Z,49.21
2023-04-26T21:15:37.774Z,49.13
2023-04-26T21:18:06.108Z,48.93
2023-04-26T21:20:33.324Z,49.21
2023-04-26T21:23:00.692Z,49.60
2023-04-26T21:25:28.074Z,49.62
2023-04-26T21:27:57.971Z,50.02
2023-04-26T21:30:25.746Z,50.35
2023-04-26T21:32:53.636Z,50.52
2023-04-26T21:35:20.668Z,50.50
2023-04-26T21:37:48.514Z,50.69
2023-04-26T21:40:16.572Z,50.36
2023-04-26T21:42:51.407Z,50.74
2023-04-26T21:45:25.978Z,50.68
2023-04-26T21:47:53.798Z,49.74
2023-04-26T21:50:20.911Z,49.74
2023-04-26T21:52:48.586Z,49.34
2023-04-26T21:55:15.539Z,49.44
2023-04-26T21:57:42.872Z,49.05
2023-04-26T22:00:12.008Z,48.80
2023-04-26T22:02:39.899Z,48.80
2023-04-26T22:05:07.551Z,48.88
2023-04-26T22:07:36.530Z,48.81
2023-04-26T22:10:03.632Z,49.02
2023-04-26T22:12:31.606Z,50.95
2023-04-26T22:15:00.300Z,50.83
2023-04-26T22:17:27.315Z,50.63
2023-04-26T22:19:55.641Z,50.38
2023-04-26T22:22:25.629Z,50.32
2023-04-26T22:24:54.325Z,49.90
2023-04-26T22:27:22.101Z,49.93
2023-04-26T22:29:51.760Z,50.10
2023-04-26T22:32:18.988Z,50.42
2023-04-26T22:34:45.960Z,50.59
2023-04-26T22:37:20.228Z,51.70
2023-04-26T22:39:48.025Z,51.88
2023-04-26T22:42:17.630Z,51.98
2023-04-26T22:44:44.510Z,51.62
2023-04-26T22:47:11.448Z,51.78
2023-04-26T22:49:40.201Z,52.42
2023-04-26T22:52:14.099Z,52.74
2023-04-26T22:54:44.072Z,52.21
2023-04-26T22:57:11.312Z,51.85
2023-04-26T22:59:38.958Z,51.34
2023-04-26T23:02:05.950Z,50.81
2023-04-26T23:04:33.618Z,50.34
2023-04-26T23:07:00.574Z,50.07
2023-04-26T23:09:27.332Z,50.13
2023-04-26T23:11:55.254Z,49.98
2023-04-26T23:14:22.967Z,50.35
2023-04-26T23:16:50.787Z,50.66
2023-04-26T23:19:18.522Z,50.62
2023-04-26T23:21:46.340Z,50.51
2023-04-26T23:24:14.082Z,50.48
2023-04-26T23:26:40.964Z,50.18
2023-04-26T23:29:08.160Z,50.15
2023-04-26T23:31:35.303Z,49.50
2023-04-26T23:34:02.967Z,49.89
2023-04-26T23:36:30.789Z,50.00
2023-04-26T23:38:57.621Z,50.21
2023-04-26T23:41:25.285Z,50.22
2023-04-26T23:43:52.016Z,49.67
2023-04-26T23:46:19.193Z,49.78
2023-04-26T23:48:46.097Z,49.96
2023-04-26T23:51:12.932Z,50.10
2023-04-26T23:53:41.107Z,50.54
2023-04-26T23:56:08.725Z,50.51
2023-04-26T23:58:35.664Z,50.50
